Terminal Aerodrome Forecast
Issued by NWS

Home | Current Version | Previous Version | Text Only | Print | Product List | Glossary On
Versions: 1 2 3 4 5 6 7 8 9 10 11 12 13 14 15 16
663
FTUS43 KDLH 011303 AAA
TAFHYR
TAF AMD
KHYR 011303Z 0113/0212 04012G20KT P6SM OVC009
      TEMPO 0113/0115 SCT009
     FM011600 05010G18KT P6SM SKC
     FM020100 03007KT P6SM SKC=

USA.gov is the U.S. government's official web portal to all federal, state and local government web resources and services.